createdAt,value
2022-09-23T00:01:00.978Z,101810.56
2022-09-23T00:03:29.546Z,101813.25
2022-09-23T00:06:02.771Z,101819.44
2022-09-23T00:08:30.853Z,101808.31
2022-09-23T00:10:58.853Z,101814.50
2022-09-23T00:13:26.468Z,101799.00
2022-09-23T00:15:53.849Z,101789.50
2022-09-23T00:18:21.600Z,101797.31
2022-09-23T00:20:50.000Z,101794.84
2022-09-23T00:23:18.830Z,101797.53
2022-09-23T00:25:46.346Z,101790.59
2022-09-23T00:28:13.908Z,101794.16
2022-09-23T00:30:41.891Z,101792.50
2022-09-23T00:33:09.409Z,101789.13
2022-09-23T00:35:38.583Z,101784.00
2022-09-23T00:38:06.162Z,101778.91
2022-09-23T00:40:36.306Z,101781.66
2022-09-23T00:43:04.762Z,101775.59
2022-09-23T00:45:33.087Z,101771.28
2022-09-23T00:48:03.672Z,101771.34
2022-09-23T00:50:35.162Z,101772.34
2022-09-23T00:53:06.668Z,101770.66
2022-09-23T00:55:39.734Z,101766.28
2022-09-23T00:58:11.033Z,101764.59
2022-09-23T01:00:38.566Z,101758.56
2022-09-23T01:03:07.695Z,101765.44
2022-09-23T01:05:36.399Z,101757.69
2022-09-23T01:08:05.764Z,101745.53
2022-09-23T01:10:52.505Z,101764.69
2022-09-23T01:13:27.690Z,101762.91
2022-09-23T01:16:04.936Z,101761.06
2022-09-23T01:18:38.941Z,101751.44
2022-09-23T01:21:20.060Z,101747.28
2022-09-23T01:24:26.411Z,101748.97
2022-09-23T01:27:10.823Z,101755.97
2022-09-23T01:30:05.527Z,101748.28
2022-09-23T01:32:46.751Z,101745.75
2022-09-23T01:35:25.012Z,101739.59
2022-09-23T01:38:01.162Z,101745.69
2022-09-23T01:40:39.931Z,101737.06
2022-09-23T01:43:11.572Z,101733.69
2022-09-23T01:45:44.538Z,101738.00
2022-09-23T01:48:19.154Z,101739.81
2022-09-23T01:50:59.578Z,101738.13
2022-09-23T01:53:35.637Z,101743.41
2022-09-23T01:56:06.502Z,101733.13
2022-09-23T01:58:41.852Z,101735.00
2022-09-23T02:01:16.343Z,101734.38
2022-09-23T02:03:52.093Z,101731.97
2022-09-23T02:06:24.250Z,101725.34
2022-09-23T02:08:57.589Z,101717.69
2022-09-23T02:11:25.591Z,101732.59
2022-09-23T02:13:55.482Z,101721.56
2022-09-23T02:16:28.481Z,101724.28
2022-09-23T02:19:02.333Z,101720.94
2022-09-23T02:21:35.187Z,101722.06
2022-09-23T02:24:09.779Z,101721.22
2022-09-23T02:26:46.047Z,101720.50
2022-09-23T02:29:20.819Z,101713.78
2022-09-23T02:31:57.403Z,101715.69
2022-09-23T02:34:36.772Z,101716.72
2022-09-23T02:37:12.485Z,101711.72
2022-09-23T02:39:50.448Z,101710.16
2022-09-23T02:42:22.570Z,101713.00
2022-09-23T02:44:50.242Z,101708.78
2022-09-23T02:47:21.411Z,101711.44
2022-09-23T02:49:50.271Z,101702.94
2022-09-23T02:52:18.086Z,101698.75
2022-09-23T02:54:45.638Z,101696.22
2022-09-23T02:57:14.497Z,101699.72
2022-09-23T02:59:42.512Z,101694.59
2022-09-23T03:02:29.194Z,101689.50
2022-09-23T03:05:06.623Z,101685.16
2022-09-23T03:07:44.571Z,101694.72
2022-09-23T03:10:20.507Z,101689.56
2022-09-23T03:13:01.274Z,101684.31
2022-09-23T03:15:38.285Z,101684.25
2022-09-23T03:18:15.273Z,101682.63
2022-09-23T03:20:49.549Z,101674.88
2022-09-23T03:23:23.541Z,101673.19
2022-09-23T03:25:54.815Z,101665.41
2022-09-23T03:28:25.357Z,101661.09
2022-09-23T03:30:55.512Z,101662.78
2022-09-23T03:33:28.816Z,101659.28
2022-09-23T03:36:22.276Z,101660.13
2022-09-23T03:38:52.750Z,101653.94
2022-09-23T03:41:28.901Z,101657.47
2022-09-23T03:43:58.431Z,101648.75
2022-09-23T03:46:27.417Z,101650.56
2022-09-23T03:49:00.671Z,101647.97
2022-09-23T03:51:29.616Z,101661.81
2022-09-23T03:53:57.474Z,101645.44
2022-09-23T03:56:24.982Z,101650.63
2022-09-23T03:58:52.486Z,101643.66
2022-09-23T04:01:20.091Z,101651.41
2022-09-23T04:03:49.043Z,101653.19
2022-09-23T04:06:16.908Z,101649.81
2022-09-23T04:08:45.863Z,101651.53
2022-09-23T04:11:13.440Z,101645.50
2022-09-23T04:13:41.016Z,101640.34
2022-09-23T04:16:08.570Z,101634.56
2022-09-23T04:18:36.209Z,101637.41
2022-09-23T04:21:03.800Z,101631.38
2022-09-23T04:23:31.271Z,101630.47
2022-09-23T04:26:00.135Z,101621.75
2022-09-23T04:28:27.694Z,101626.13
2022-09-23T04:30:57.773Z,101629.50
2022-09-23T04:33:25.716Z,101622.50
2022-09-23T04:35:53.440Z,101630.19
2022-09-23T04:38:22.022Z,101624.16
2022-09-23T04:40:49.889Z,101624.16
2022-09-23T04:43:18.923Z,101615.47
2022-09-23T04:45:46.386Z,101621.50
2022-09-23T04:48:13.916Z,101626.78
2022-09-23T04:50:41.603Z,101621.50
2022-09-23T04:53:09.118Z,101625.00
2022-09-23T04:55:36.677Z,101629.31
2022-09-23T04:58:04.262Z,101628.53
2022-09-23T05:00:33.536Z,101631.19
2022-09-23T05:03:01.024Z,101630.34
2022-09-23T05:05:29.725Z,101628.66
2022-09-23T05:07:57.883Z,101627.81
2022-09-23T05:10:25.346Z,101636.50
2022-09-23T05:12:57.111Z,101630.53
2022-09-23T05:15:24.963Z,101628.91
2022-09-23T05:17:53.775Z,101628.06
2022-09-23T05:20:21.573Z,101622.94
2022-09-23T05:22:49.047Z,101619.50
2022-09-23T05:25:16.755Z,101621.28
2022-09-23T05:27:44.226Z,101623.03
2022-09-23T05:30:12.231Z,101623.09
2022-09-23T05:32:39.715Z,101630.13
2022-09-23T05:35:09.346Z,101619.72
2022-09-23T05:37:38.914Z,101617.13
2022-09-23T05:40:07.400Z,101615.44
2022-09-23T05:42:35.188Z,101616.25
2022-09-23T05:45:02.714Z,101613.47
2022-09-23T05:47:30.212Z,101620.31
2022-09-23T05:50:00.466Z,101610.75
2022-09-23T05:52:34.830Z,101613.19
2022-09-23T05:55:03.207Z,101614.81
2022-09-23T05:57:32.070Z,101612.09
2022-09-23T06:00:20.784Z,101613.66
2022-09-23T06:02:56.376Z,101619.50
2022-09-23T06:05:31.796Z,101612.34
2022-09-23T06:08:04.498Z,101616.47
2022-09-23T06:10:47.871Z,101617.94
2022-09-23T06:13:36.788Z,101624.50
2022-09-23T06:16:14.364Z,101623.34
2022-09-23T06:18:43.684Z,101618.78
2022-09-23T06:21:13.763Z,101618.59
2022-09-23T06:23:47.409Z,101616.63
2022-09-23T06:26:19.574Z,101618.88
2022-09-23T06:28:53.458Z,101620.25
2022-09-23T06:31:32.361Z,101611.28
2022-09-23T06:34:44.790Z,101615.47
2022-09-23T06:38:36.755Z,101613.09
2022-09-23T06:41:08.070Z,101614.28
2022-09-23T06:43:36.451Z,101613.97
2022-09-23T06:46:06.528Z,101615.91
2022-09-23T06:48:36.081Z,101619.28
2022-09-23T06:51:07.561Z,101622.47
2022-09-23T06:53:38.792Z,101621.09
2022-09-23T06:56:12.410Z,101614.88
2022-09-23T06:58:40.110Z,101612.19
2022-09-23T07:01:09.846Z,101620.00
2022-09-23T07:03:38.349Z,101626.78
2022-09-23T07:06:07.190Z,101629.31
2022-09-23T07:08:35.872Z,101628.34
2022-09-23T07:11:13.325Z,101632.69
2022-09-23T07:13:46.861Z,101634.00
2022-09-23T07:16:16.330Z,101634.75
2022-09-23T07:18:45.047Z,101632.47
2022-09-23T07:21:28.378Z,101628.88
2022-09-23T07:23:58.219Z,101624.91
2022-09-23T07:26:26.785Z,101631.69
2022-09-23T07:29:04.543Z,101633.22
2022-09-23T07:31:39.216Z,101640.50
2022-09-23T07:34:08.043Z,101640.19
2022-09-23T07:36:37.435Z,101639.13
2022-09-23T07:39:05.635Z,101641.53
2022-09-23T07:41:34.773Z,101649.47
2022-09-23T07:44:06.034Z,101638.78
2022-09-23T07:46:35.862Z,101651.00
2022-09-23T07:49:05.192Z,101638.03
2022-09-23T07:51:36.485Z,101638.69
2022-09-23T07:54:07.809Z,101639.00
2022-09-23T07:56:36.068Z,101632.47
2022-09-23T07:59:05.511Z,101635.81
2022-09-23T08:01:35.207Z,101642.97
2022-09-23T08:04:06.537Z,101639.25
2022-09-23T08:06:34.635Z,101645.16
2022-09-23T08:09:05.138Z,101634.81
2022-09-23T08:11:32.892Z,101637.91
2022-09-23T08:14:00.413Z,101633.91
2022-09-23T08:16:29.254Z,101632.56
2022-09-23T08:18:57.083Z,101626.69
2022-09-23T08:21:24.612Z,101624.38
2022-09-23T08:23:52.424Z,101631.00
2022-09-23T08:26:22.289Z,101630.38
2022-09-23T08:28:51.350Z,101626.78
2022-09-23T08:31:18.910Z,101632.47
2022-09-23T08:33:47.650Z,101628.59
2022-09-23T08:36:15.234Z,101631.63
2022-09-23T08:38:42.755Z,101618.72
2022-09-23T08:41:20.970Z,101615.22
2022-09-23T08:43:51.310Z,101620.97
2022-09-23T08:46:24.886Z,101615.91
2022-09-23T08:48:55.061Z,101608.84
2022-09-23T08:51:30.318Z,101616.69
2022-09-23T08:53:59.885Z,101603.63
2022-09-23T08:56:29.848Z,101603.06
2022-09-23T08:59:05.118Z,101606.59
2022-09-23T09:01:39.096Z,101603.13
2022-09-23T09:04:17.435Z,101599.50
2022-09-23T09:06:53.516Z,101595.00
2022-09-23T09:09:26.424Z,101603.63
2022-09-23T09:11:58.915Z,101601.63
2022-09-23T09:14:30.373Z,101590.56
2022-09-23T09:17:01.641Z,101591.13
2022-09-23T09:20:05.322Z,101587.13
2022-09-23T09:22:49.297Z,101589.28
2022-09-23T09:25:32.130Z,101588.44
2022-09-23T09:28:02.350Z,101595.53
2022-09-23T09:30:30.022Z,101594.75
2022-09-23T09:33:02.692Z,101585.03
2022-09-23T09:35:37.747Z,101584.53
2022-09-23T09:38:06.624Z,101583.75
2022-09-23T09:40:35.542Z,101577.56
2022-09-23T09:43:05.461Z,101577.63
2022-09-23T09:45:57.859Z,101577.66
2022-09-23T09:48:33.343Z,101567.59
2022-09-23T09:51:19.755Z,101564.22
2022-09-23T09:53:47.322Z,101559.75
2022-09-23T09:56:16.849Z,101558.81
2022-09-23T09:58:49.370Z,101553.44
2022-09-23T10:01:25.016Z,101551.06
2022-09-23T10:03:56.919Z,101554.47
2022-09-23T10:06:29.930Z,101551.75
2022-09-23T10:09:11.332Z,101549.13
2022-09-23T10:11:39.721Z,101542.47
2022-09-23T10:14:13.438Z,101539.28
2022-09-23T10:16:42.372Z,101545.56
2022-09-23T10:19:19.457Z,101535.97
2022-09-23T10:21:53.056Z,101534.09
2022-09-23T10:24:24.966Z,101540.81
2022-09-23T10:26:58.068Z,101534.41
2022-09-23T10:29:30.342Z,101529.53
2022-09-23T10:32:21.660Z,101534.44
2022-09-23T10:34:53.224Z,101534.38
2022-09-23T10:37:28.898Z,101525.03
2022-09-23T10:40:14.158Z,101525.56
2022-09-23T10:43:12.064Z,101516.63
2022-09-23T10:45:58.827Z,101519.63
2022-09-23T10:48:37.245Z,101520.38
2022-09-23T10:51:14.395Z,101516.09
2022-09-23T10:53:55.168Z,101517.31
2022-09-23T10:56:33.035Z,101519.19
2022-09-23T10:59:29.163Z,101515.84
2022-09-23T11:02:12.031Z,101513.91
2022-09-23T11:05:16.389Z,101515.94
2022-09-23T11:07:50.354Z,101508.69
2022-09-23T11:10:46.547Z,101496.03
2022-09-23T11:13:24.714Z,101496.97
2022-09-23T11:16:04.111Z,101493.09
2022-09-23T11:18:45.669Z,101490.31
2022-09-23T11:21:36.213Z,101489.44
2022-09-23T11:24:20.560Z,101490.31
2022-09-23T11:27:04.994Z,101484.25
2022-09-23T11:30:05.619Z,101480.94
2022-09-23T11:33:14.059Z,101478.56
2022-09-23T11:35:47.681Z,101475.25
2022-09-23T11:38:21.281Z,101459.06
2022-09-23T11:40:54.868Z,101459.38
2022-09-23T11:43:25.526Z,101452.06
2022-09-23T11:45:59.510Z,101451.44
2022-09-23T11:48:32.796Z,101453.44
2022-09-23T11:51:04.433Z,101441.91
2022-09-23T11:53:41.655Z,101429.94
2022-09-23T11:56:24.168Z,101435.75
2022-09-23T11:59:05.508Z,101428.38
2022-09-23T12:01:39.623Z,101426.16
2022-09-23T12:04:20.411Z,101424.59
2022-09-23T12:06:53.344Z,101420.13
2022-09-23T12:09:47.075Z,101427.16
2022-09-23T12:12:26.326Z,101414.63
2022-09-23T12:15:02.823Z,101411.81
2022-09-23T12:18:02.655Z,101411.78
2022-09-23T12:20:58.126Z,101407.47
2022-09-23T12:23:52.100Z,101405.78
2022-09-23T12:26:27.638Z,101400.41
2022-09-23T12:29:05.454Z,101408.06
2022-09-23T12:31:45.356Z,101403.44
2022-09-23T12:34:26.251Z,101405.94
2022-09-23T12:37:13.268Z,101400.22
2022-09-23T12:39:44.270Z,101385.28
2022-09-23T12:42:18.991Z,101383.31
2022-09-23T12:44:52.167Z,101384.03
2022-09-23T12:47:42.187Z,101379.94
2022-09-23T12:50:55.560Z,101372.59
2022-09-23T12:54:23.325Z,101378.84
2022-09-23T12:57:08.772Z,101378.72
2022-09-23T13:00:16.958Z,101370.78
2022-09-23T13:03:13.848Z,101376.25
2022-09-23T13:06:08.410Z,101369.22
2022-09-23T13:08:42.509Z,101369.91
2022-09-23T13:11:21.564Z,101369.91
2022-09-23T13:13:51.683Z,101361.09
2022-09-23T13:16:24.559Z,101356.25
2022-09-23T13:18:56.394Z,101353.75
2022-09-23T13:22:08.294Z,101350.28
2022-09-23T13:24:43.532Z,101339.44
2022-09-23T13:27:28.211Z,101336.16
2022-09-23T13:30:08.474Z,101343.31
2022-09-23T13:32:43.194Z,101338.31
2022-09-23T13:35:29.901Z,101335.16
2022-09-23T13:38:24.288Z,101337.31
2022-09-23T13:41:06.481Z,101331.19
2022-09-23T13:43:58.016Z,101322.88
2022-09-23T13:46:29.775Z,101320.53
2022-09-23T13:49:11.144Z,101312.72
2022-09-23T13:52:09.234Z,101306.25
2022-09-23T13:54:56.977Z,101307.22
2022-09-23T14:11:30.087Z,101288.66
2022-09-23T14:14:46.524Z,101283.72
2022-09-23T14:21:54.017Z,101275.72
2022-09-23T14:24:54.859Z,101277.19
2022-09-23T14:27:30.089Z,101273.88
2022-09-23T14:30:00.421Z,101264.56
2022-09-23T14:32:36.965Z,101262.06
2022-09-23T14:35:20.195Z,101258.88
2022-09-23T14:38:09.263Z,101254.38
2022-09-23T14:40:53.050Z,101253.94
2022-09-23T14:43:25.578Z,101251.34
2022-09-23T14:46:00.203Z,101247.53
2022-09-23T14:48:31.963Z,101253.81
2022-09-23T14:51:22.491Z,101247.03
2022-09-23T14:53:51.159Z,101242.47
2022-09-23T14:56:22.204Z,101251.84
2022-09-23T14:58:54.262Z,101247.19
2022-09-23T15:01:38.802Z,101247.41
2022-09-23T15:04:17.339Z,101240.38
2022-09-23T15:06:53.616Z,101245.97
2022-09-23T15:09:25.568Z,101243.47
2022-09-23T15:11:57.531Z,101251.13
2022-09-23T15:14:38.697Z,101251.78
2022-09-23T15:17:18.465Z,101244.66
2022-09-23T15:19:52.709Z,101237.56
2022-09-23T15:22:21.060Z,101236.06
2022-09-23T15:24:49.431Z,101238.63
2022-09-23T15:27:31.031Z,101231.03
2022-09-23T15:30:15.211Z,101237.47
2022-09-23T15:32:45.610Z,101236.25
2022-09-23T15:35:16.562Z,101230.72
2022-09-23T15:37:45.023Z,101227.53
2022-09-23T15:40:22.882Z,101226.84
2022-09-23T15:42:52.797Z,101223.69
2022-09-23T15:45:27.519Z,101220.47
2022-09-23T15:48:03.548Z,101226.09
2022-09-23T15:50:32.520Z,101222.56
2022-09-23T15:53:00.702Z,101222.56
2022-09-23T15:55:28.771Z,101226.22
2022-09-23T15:57:57.046Z,101221.22
2022-09-23T16:00:24.970Z,101221.50
2022-09-23T16:02:54.543Z,101210.94
2022-09-23T16:05:30.984Z,101218.31
2022-09-23T16:07:59.676Z,101211.81
2022-09-23T16:10:51.132Z,101215.34
2022-09-23T16:21:24.847Z,101214.91
2022-09-23T16:24:43.977Z,101207.38
2022-09-23T16:27:20.699Z,101204.47
2022-09-23T16:29:54.916Z,101212.44
2022-09-23T16:32:44.078Z,101213.41
2022-09-23T16:35:39.510Z,101211.19
2022-09-23T16:38:20.405Z,101200.91
2022-09-23T16:40:55.755Z,101214.38
2022-09-23T16:43:24.914Z,101197.56
2022-09-23T16:45:53.347Z,101215.06
2022-09-23T16:48:24.036Z,101216.47
2022-09-23T16:50:55.171Z,101209.94
2022-09-23T16:53:27.235Z,101207.31
2022-09-23T16:55:58.274Z,101201.03
2022-09-23T16:58:26.760Z,101196.44
2022-09-23T17:01:16.325Z,101203.41
2022-09-23T17:03:44.815Z,101200.75
2022-09-23T17:06:14.125Z,101199.06
2022-09-23T17:08:48.749Z,101195.63
2022-09-23T17:11:34.089Z,101196.88
2022-09-23T17:14:07.120Z,101190.19
2022-09-23T17:16:48.257Z,101188.09
2022-09-23T17:19:26.103Z,101192.69
2022-09-23T17:22:05.747Z,101190.59
2022-09-23T17:24:52.673Z,101190.16
2022-09-23T17:27:47.445Z,101187.25
2022-09-23T17:30:17.689Z,101185.03
2022-09-23T17:32:50.266Z,101178.59
2022-09-23T17:35:23.855Z,101174.59
2022-09-23T17:37:56.324Z,101180.25
2022-09-23T17:40:27.003Z,101186.63
2022-09-23T17:42:55.359Z,101188.69
2022-09-23T17:45:23.799Z,101184.66
2022-09-23T17:47:54.994Z,101186.72
2022-09-23T17:50:23.671Z,101185.19
2022-09-23T17:52:54.077Z,101178.78
2022-09-23T17:55:22.252Z,101178.63
2022-09-23T17:57:53.709Z,101191.91
2022-09-23T18:00:24.854Z,101185.19
2022-09-23T18:02:59.291Z,101185.72
2022-09-23T18:05:28.274Z,101191.53
2022-09-23T18:07:56.963Z,101195.38
2022-09-23T18:10:25.878Z,101189.56
2022-09-23T18:12:58.542Z,101198.69
2022-09-23T18:15:32.957Z,101182.56
2022-09-23T18:18:08.817Z,101187.13
2022-09-23T18:20:59.953Z,101183.09
2022-09-23T18:23:29.747Z,101186.94
2022-09-23T18:25:59.037Z,101188.03
2022-09-23T18:28:34.630Z,101185.66
2022-09-23T18:31:04.203Z,101183.28
2022-09-23T18:33:32.471Z,101176.44
2022-09-23T18:36:01.267Z,101173.25
2022-09-23T18:38:29.536Z,101182.38
2022-09-23T18:40:59.386Z,101181.69
2022-09-23T18:43:37.571Z,101180.22
2022-09-23T18:46:12.337Z,101175.31
2022-09-23T18:48:58.990Z,101175.72
2022-09-23T18:51:29.728Z,101174.56
2022-09-23T18:53:59.435Z,101179.13
2022-09-23T18:56:29.740Z,101176.72
2022-09-23T18:58:59.267Z,101174.09
2022-09-23T19:01:27.976Z,101171.59
2022-09-23T19:03:57.278Z,101169.91
2022-09-23T19:06:27.177Z,101172.78
2022-09-23T19:08:56.498Z,101176.66
2022-09-23T19:11:25.264Z,101174.50
2022-09-23T19:14:03.180Z,101173.22
2022-09-23T19:16:34.079Z,101181.63
2022-09-23T19:19:02.792Z,101173.97
2022-09-23T19:21:31.835Z,101184.16
2022-09-23T19:24:03.575Z,101170.41
2022-09-23T19:26:33.870Z,101171.75
2022-09-23T19:29:03.477Z,101171.28
2022-09-23T19:31:35.369Z,101171.53
2022-09-23T19:34:10.168Z,101166.75
2022-09-23T19:36:40.098Z,101166.19
2022-09-23T19:39:10.835Z,101163.56
2022-09-23T19:41:39.611Z,101159.25
2022-09-23T19:44:08.363Z,101165.44
2022-09-23T19:46:39.554Z,101158.66
2022-09-23T19:49:08.771Z,101157.22
2022-09-23T19:51:37.131Z,101157.47
2022-09-23T19:54:07.265Z,101160.47
2022-09-23T19:56:36.135Z,101164.28
2022-09-23T19:59:05.991Z,101165.50
2022-09-23T20:01:35.417Z,101152.72
2022-09-23T20:04:05.884Z,101158.16
2022-09-23T20:06:36.007Z,101155.78
2022-09-23T20:09:04.183Z,101152.44
2022-09-23T20:11:32.661Z,101154.47
2022-09-23T20:14:03.462Z,101152.91
2022-09-23T20:16:34.071Z,101158.28
2022-09-23T20:19:04.962Z,101153.38
2022-09-23T20:21:33.985Z,101147.66
2022-09-23T20:24:04.487Z,101152.31
2022-09-23T20:26:50.298Z,101149.09
2022-09-23T20:29:19.474Z,101149.22
2022-09-23T20:31:47.904Z,101149.31
2022-09-23T20:34:17.287Z,101143.38
2022-09-23T20:36:45.331Z,101134.78
2022-09-23T20:39:13.312Z,101136.53
2022-09-23T20:41:41.490Z,101139.28
2022-09-23T20:44:12.993Z,101135.84
2022-09-23T20:46:46.933Z,101130.69
2022-09-23T20:49:18.492Z,101139.91
2022-09-23T20:51:48.322Z,101135.09
2022-09-23T20:54:19.046Z,101135.44
2022-09-23T20:56:47.652Z,101133.28
2022-09-23T20:59:17.496Z,101142.59
2022-09-23T21:01:45.306Z,101140.44
2022-09-23T21:04:12.876Z,101132.94
2022-09-23T21:06:41.663Z,101133.97
2022-09-23T21:09:09.143Z,101125.38
2022-09-23T21:11:36.772Z,101133.25
2022-09-23T21:14:04.329Z,101129.06
2022-09-23T21:16:32.052Z,101128.13
2022-09-23T21:19:00.091Z,101120.13
2022-09-23T21:21:27.788Z,101110.47
2022-09-23T21:24:17.286Z,101114.88
2022-09-23T21:26:47.763Z,101118.34
2022-09-23T21:29:15.226Z,101114.88
2022-09-23T21:31:42.798Z,101116.06
2022-09-23T21:34:12.466Z,101107.13
2022-09-23T21:36:42.782Z,101111.28
2022-09-23T21:39:12.916Z,101104.28
2022-09-23T21:41:40.863Z,101105.00
2022-09-23T21:44:08.965Z,101112.63
2022-09-23T21:46:37.491Z,101112.53
2022-09-23T21:49:05.688Z,101109.91
2022-09-23T21:51:36.551Z,101103.91
2022-09-23T21:54:04.930Z,101105.47
2022-09-23T21:56:36.522Z,101103.78
2022-09-23T21:59:05.234Z,101093.16
2022-09-23T22:01:36.227Z,101099.28
2022-09-23T22:04:08.358Z,101107.28
2022-09-23T22:06:38.414Z,101096.75
2022-09-23T22:09:09.131Z,101095.09
2022-09-23T22:11:57.064Z,101097.72
2022-09-23T22:14:26.305Z,101097.22
2022-09-23T22:16:57.563Z,101091.97
2022-09-23T22:19:26.292Z,101086.72
2022-09-23T22:21:55.873Z,101091.25
2022-09-23T22:24:24.046Z,101083.38
2022-09-23T22:26:53.272Z,101095.06
2022-09-23T22:29:38.644Z,101091.72
2022-09-23T22:32:28.471Z,101090.03
2022-09-23T22:34:56.006Z,101089.44
2022-09-23T22:37:26.459Z,101086.31
2022-09-23T22:39:56.474Z,101090.88
2022-09-23T22:42:25.337Z,101080.25
2022-09-23T22:44:55.378Z,101078.34
2022-09-23T22:47:25.234Z,101073.31
2022-09-23T22:49:55.367Z,101079.50
2022-09-23T22:52:25.099Z,101084.53
2022-09-23T22:54:52.887Z,101074.03
2022-09-23T22:57:20.643Z,101062.72
2022-09-23T22:59:52.643Z,101072.38
2022-09-23T23:02:21.835Z,101072.25
2022-09-23T23:04:50.108Z,101074.03
2022-09-23T23:07:21.928Z,101072.50
2022-09-23T23:09:53.097Z,101071.78
2022-09-23T23:12:21.781Z,101061.41
2022-09-23T23:14:50.226Z,101069.28
2022-09-23T23:17:19.188Z,101071.25
2022-09-23T23:19:46.742Z,101067.94
2022-09-23T23:22:14.287Z,101063.88
2022-09-23T23:24:41.880Z,101060.66
2022-09-23T23:27:09.712Z,101057.16
2022-09-23T23:29:37.330Z,101056.34
2022-09-23T23:32:05.128Z,101057.28
2022-09-23T23:34:33.970Z,101048.47
2022-09-23T23:37:01.531Z,101046.69
2022-09-23T23:39:30.720Z,101044.06
2022-09-23T23:41:59.013Z,101045.09
2022-09-23T23:44:27.798Z,101042.59
2022-09-23T23:46:56.034Z,101042.59
2022-09-23T23:49:23.987Z,101041.84
2022-09-23T23:51:53.007Z,101042.00
2022-09-23T23:54:20.444Z,101037.69
2022-09-23T23:56:50.000Z,101053.53
2022-09-23T23:59:20.199Z,101049.59
